Time;durP1;ratioP1;P1;durP2;ratioP2;P2;SDS_P1;SDS_P2;PMS_P1;PMS_P2;Temp;Humidity;BMP_temperature;BMP_pressure;BME280_temperature;BME280_humidity;BME280_pressure;Samples;Min_cycle;Max_cycle;Signal;HPM_P1;HPM_P2
2020/12/08 00:00:09;;;;;;;45.95;23.77;;;;;;;7.53;61.49;100238.25;5077952;28;20037;-83
2020/12/08 00:02:34;;;;;;;49.25;23.50;;;;;;;7.35;62.13;100234.59;5076707;28;20033;-84
2020/12/08 00:05:00;;;;;;;44.63;23.58;;;;;;;6.55;64.49;100240.63;5076427;28;20040;-84
2020/12/08 00:07:25;;;;;;;43.83;23.27;;;;;;;7.18;62.57;100234.44;5076349;28;20389;-84
2020/12/08 00:09:51;;;;;;;45.33;24.52;;;;;;;7.21;62.40;100234.31;5076448;28;20734;-82
2020/12/08 00:12:16;;;;;;;45.30;24.60;;;;;;;6.71;63.94;100239.06;5077068;28;20493;-82
2020/12/08 00:14:41;;;;;;;46.13;23.80;;;;;;;6.76;63.59;100233.50;5075807;28;20544;-83
2020/12/08 00:17:06;;;;;;;;;;;;;;;6.76;63.30;100236.19;5076061;28;20029;-83
2020/12/08 00:19:32;;;;;;;52.08;26.38;;;;;;;6.91;63.37;100238.25;5077328;28;19920;-83
2020/12/08 00:21:58;;;;;;;55.05;27.58;;;;;;;6.91;62.90;100230.19;5092944;28;20032;-83
2020/12/08 00:24:24;;;;;;;57.00;27.95;;;;;;;7.12;62.23;100223.94;5076139;28;20445;-83
2020/12/08 00:26:49;;;;;;;;;;;;;;;7.41;61.16;100226.25;5039474;28;20037;-84
2020/12/08 00:29:14;;;;;;;57.80;27.83;;;;;;;7.14;62.25;100228.34;5056590;28;19966;-83
2020/12/08 00:31:40;;;;;;;65.72;30.67;;;;;;;6.49;64.18;100235.53;5038593;28;20040;-83
2020/12/08 00:34:05;;;;;;;70.13;32.47;;;;;;;6.38;65.10;100236.81;5038779;28;20021;-84
2020/12/08 00:36:31;;;;;;;66.97;32.22;;;;;;;7.17;62.60;100236.28;5039156;28;20406;-83
2020/12/08 00:38:56;;;;;;;76.88;33.38;;;;;;;6.57;64.16;100236.09;5039462;28;20037;-83
2020/12/08 00:41:23;;;;;;;77.97;34.40;;;;;;;6.44;64.72;100238.41;5039280;28;20120;-84
2020/12/08 00:43:51;;;;;;;75.57;34.88;;;;;;;6.37;64.98;100232.41;5056577;28;20029;-84
2020/12/08 00:46:18;;;;;;;77.63;35.13;;;;;;;6.37;65.71;100239.56;5038859;28;20060;-83
2020/12/08 00:48:44;;;;;;;81.28;37.38;;;;;;;6.49;64.56;100244.47;5039035;28;20033;-83
2020/12/08 00:51:09;;;;;;;82.80;35.42;;;;;;;7.30;62.69;100241.09;5039270;28;20061;-83
2020/12/08 00:53:35;;;;;;;84.88;38.22;;;;;;;6.85;63.38;100245.69;5056101;28;20114;-83
2020/12/08 00:56:00;;;;;;;90.78;37.28;;;;;;;7.00;62.82;100254.94;5038947;28;20033;-83
2020/12/08 00:58:27;;;;;;;99.60;40.10;;;;;;;7.47;62.22;100249.28;5039340;28;20033;-84
2020/12/08 01:00:53;;;;;;;92.97;39.28;;;;;;;6.41;64.11;100262.69;5039070;28;20040;-83
2020/12/08 01:03:19;;;;;;;83.28;37.95;;;;;;;6.34;65.38;100263.88;5056785;28;20033;-84
2020/12/08 01:05:45;;;;;;;;;;;;;;;6.54;65.25;100253.22;5039184;28;20052;-84
2020/12/08 01:08:10;;;;;;;80.72;36.95;;;;;;;6.51;65.32;100263.22;5038608;28;20282;-83
2020/12/08 01:10:36;;;;;;;80.30;35.85;;;;;;;6.91;64.03;100266.94;5056619;28;20044;-83
2020/12/08 01:13:01;;;;;;;81.30;37.78;;;;;;;6.23;66.44;100264.28;5056978;28;20540;-84
2020/12/08 01:15:27;;;;;;;86.18;37.35;;;;;;;6.60;64.58;100261.94;5038999;28;20099;-83
2020/12/08 01:17:53;;;;;;;83.80;36.35;;;;;;;6.48;64.91;100268.72;5038361;28;20624;-83
2020/12/08 01:20:18;;;;;;;85.45;39.13;;;;;;;6.45;64.61;100268.84;5056746;28;20112;-83
2020/12/08 01:22:45;;;;;;;78.63;37.05;;;;;;;6.26;64.88;100274.06;5038980;28;20040;-82
2020/12/08 01:25:10;;;;;;;88.60;38.47;;;;;;;6.38;65.18;100266.38;5038479;28;20084;-83
2020/12/08 01:27:42;;;;;;;83.93;36.97;;;;;;;6.13;66.09;100269.16;5056755;28;20171;-83
2020/12/08 01:30:07;;;;;;;76.68;36.78;;;;;;;6.34;65.19;100266.56;5038828;28;20036;-83
2020/12/08 01:32:32;;;;;;;81.82;37.72;;;;;;;6.18;66.40;100267.16;5038669;28;20124;-83
2020/12/08 01:35:00;;;;;;;68.57;33.90;;;;;;;6.18;65.67;100266.31;5038527;28;20124;-82
2020/12/08 01:37:25;;;;;;;79.22;36.33;;;;;;;6.64;64.39;100267.13;5053896;28;20041;-82
2020/12/08 01:39:50;;;;;;;72.32;36.80;;;;;;;6.46;64.66;100267.88;5055021;28;20408;-82
2020/12/08 01:42:16;;;;;;;72.88;35.42;;;;;;;6.87;64.18;100270.69;5037249;28;20037;-82
2020/12/08 01:44:48;;;;;;;76.20;35.42;;;;;;;7.00;63.58;100269.25;5055194;28;20112;-83
2020/12/08 01:47:15;;;;;;;74.65;35.92;;;;;;;6.03;65.90;100275.81;5037483;28;20064;-83
2020/12/08 01:49:40;;;;;;;69.15;36.22;;;;;;;6.36;64.66;100270.94;5038609;28;20025;-83
2020/12/08 01:52:06;;;;;;;69.63;34.97;;;;;;;6.73;63.87;100268.59;5038621;28;20444;-82
2020/12/08 01:54:31;;;;;;;65.90;34.80;;;;;;;6.90;63.02;100270.59;5056266;28;20482;-84
2020/12/08 01:56:58;;;;;;;67.50;33.78;;;;;;;6.52;64.08;100275.69;5038405;28;20490;-82
2020/12/08 01:59:23;;;;;;;69.82;34.10;;;;;;;7.21;62.48;100274.66;5038330;28;20033;-83
2020/12/08 02:01:48;;;;;;;67.15;33.90;;;;;;;7.26;61.99;100283.41;5038450;28;20393;-83
2020/12/08 02:04:14;;;;;;;68.82;34.10;;;;;;;7.21;62.30;100288.13;5039884;28;20531;-81
2020/12/08 02:06:40;;;;;;;69.88;33.70;;;;;;;6.80;63.88;100290.72;5041760;28;20037;-83
2020/12/08 02:09:05;;;;;;;72.70;32.95;;;;;;;6.48;63.86;100291.09;5042066;28;20044;-82
2020/12/08 02:11:30;;;;;;;69.45;33.83;;;;;;;5.95;66.13;100281.44;5042353;28;20037;-81
2020/12/08 02:13:56;;;;;;;68.57;34.42;;;;;;;6.77;64.22;100286.34;5041976;28;20441;-83
2020/12/08 02:16:21;;;;;;;76.22;33.67;;;;;;;6.68;63.89;100292.97;5041730;28;20131;-82
2020/12/08 02:18:46;;;;;;;72.75;34.47;;;;;;;6.38;65.00;100289.69;5041851;28;20110;-82
2020/12/08 02:21:12;;;;;;;76.43;35.85;;;;;;;6.73;64.15;100295.47;5059862;28;20481;-82
2020/12/08 02:23:37;;;;;;;76.40;35.35;;;;;;;6.30;65.55;100291.81;5041966;28;20059;-83
2020/12/08 02:26:04;;;;;;;;;;;;;;;6.18;65.41;100301.22;5041648;28;20468;-82
2020/12/08 02:28:30;;;;;;;66.75;31.52;;;;;;;7.17;63.20;100295.44;5058259;28;19920;-82
2020/12/08 02:30:56;;;;;;;70.95;34.35;;;;;;;6.99;63.35;100294.41;5041672;28;20124;-83
2020/12/08 02:43:28;;;;;;;64.40;32.63;;;;;;;7.12;63.25;100286.69;5059563;28;20040;-83
2020/12/08 02:45:54;;;;;;;64.43;31.42;;;;;;;7.49;62.12;100274.34;5058985;28;20394;-83
2020/12/08 02:48:19;;;;;;;72.03;34.50;;;;;;;7.06;63.76;100284.25;5040987;28;20033;-83
2020/12/08 02:50:44;;;;;;;;;;;;;;;7.45;62.66;100272.72;5041605;28;20475;-82
2020/12/08 02:53:10;;;;;;;66.70;31.70;;;;;;;7.53;61.54;100273.25;5057331;28;19913;-83
2020/12/08 02:55:35;;;;;;;67.55;32.83;;;;;;;7.56;61.18;100274.94;5040781;28;20068;-83
2020/12/08 02:58:00;;;;;;;;;;;;;;;7.51;61.18;100271.59;5058981;28;20502;-82
2020/12/08 03:00:26;;;;;;;71.88;32.08;;;;;;;7.18;62.55;100274.78;5057371;28;19913;-82
2020/12/08 03:02:51;;;;;;;;;;;;;;;7.32;61.44;100275.06;5040939;28;20125;-81
2020/12/08 03:05:17;;;;;;;64.40;30.70;;;;;;;7.70;61.19;100275.22;5040189;28;19964;-83
2020/12/08 03:07:42;;;;;;;61.22;30.70;;;;;;;7.87;60.05;100277.13;5040474;28;20048;-82
2020/12/08 03:10:08;;;;;;;63.88;31.58;;;;;;;7.91;60.08;100285.94;5058801;28;20081;-82
2020/12/08 03:12:37;;;;;;;65.95;33.20;;;;;;;7.69;60.60;100281.53;5058322;28;20040;-82
2020/12/08 03:15:05;;;;;;;63.90;32.63;;;;;;;7.38;61.42;100292.75;5039857;28;20029;-83
2020/12/08 03:17:32;;;;;;;65.80;32.05;;;;;;;7.75;60.75;100280.38;5057618;28;20047;-81
2020/12/08 03:19:57;;;;;;;63.88;30.48;;;;;;;7.69;60.27;100276.13;5040295;28;20040;-82
2020/12/08 03:22:22;;;;;;;59.10;31.15;;;;;;;7.94;60.00;100277.72;5057684;28;20418;-83
2020/12/08 03:24:48;;;;;;;65.53;31.40;;;;;;;7.73;60.19;100277.75;5040234;28;20422;-83
2020/12/08 03:27:15;;;;;;;60.47;30.25;;;;;;;7.58;61.19;100270.38;5040673;28;20060;-82
2020/12/08 03:29:40;;;;;;;60.95;30.95;;;;;;;7.20;62.35;100278.28;5040265;28;20033;-83
2020/12/08 03:32:05;;;;;;;66.90;31.95;;;;;;;7.12;62.30;100286.69;5058229;28;20041;-83
2020/12/08 03:34:31;;;;;;;;;;;;;;;6.67;64.40;100275.09;5040144;28;20056;-82
2020/12/08 03:36:56;;;;;;;66.88;32.40;;;;;;;7.14;62.68;100267.78;5058192;28;19958;-83
2020/12/08 03:39:21;;;;;;;75.57;34.28;;;;;;;6.43;65.10;100276.06;5058336;28;20037;-82
2020/12/08 03:41:47;;;;;;;69.93;33.47;;;;;;;6.09;66.45;100277.41;5023560;28;20458;-83
2020/12/08 03:44:12;;;;;;;;;;;;;;;6.23;66.22;100288.47;5040740;28;20044;-82
2020/12/08 03:46:38;;;;;;;74.72;33.33;;;;;;;6.04;66.43;100285.63;5039809;28;19919;-83
2020/12/08 03:49:03;;;;;;;;;;;;;;;6.59;65.20;100287.97;5040508;28;20116;-82
2020/12/08 03:51:28;;;;;;;64.72;31.65;;;;;;;6.89;63.76;100280.44;5057721;28;20390;-83
2020/12/08 03:53:54;;;;;;;72.28;33.58;;;;;;;5.81;67.18;100300.75;5057779;28;20029;-83
2020/12/08 03:56:19;;;;;;;;;;;;;;;6.75;64.97;100296.28;5058240;28;20473;-83
2020/12/08 03:58:45;;;;;;;73.50;33.70;;;;;;;5.84;67.14;100291.69;5057169;28;19919;-82
2020/12/08 04:01:15;;;;;;;70.95;33.58;;;;;;;6.55;65.52;100295.28;5057271;28;20120;-83
2020/12/08 04:03:47;;;;;;;71.30;33.92;;;;;;;6.27;65.80;100294.63;5038800;28;20041;-82
2020/12/08 04:06:13;;;;;;;67.30;32.72;;;;;;;6.15;66.62;100293.28;5039367;28;20040;-82
2020/12/08 04:08:40;;;;;;;63.50;31.55;;;;;;;6.59;65.34;100300.53;5039246;28;20386;-82
2020/12/08 04:11:06;;;;;;;66.00;31.38;;;;;;;6.64;64.35;100296.69;5057510;28;20040;-82
2020/12/08 04:13:32;;;;;;;66.82;33.55;;;;;;;6.88;63.99;100297.53;5039280;28;20033;-83
2020/12/08 04:15:57;;;;;;;;;;;;;;;6.16;65.52;100300.38;5057359;28;20041;-83
2020/12/08 04:18:23;;;;;;;63.38;30.92;;;;;;;6.57;65.33;100303.28;5056899;28;19999;-82
2020/12/08 04:20:49;;;;;;;69.80;32.53;;;;;;;5.66;68.23;100301.28;5039117;28;20045;-82
2020/12/08 04:23:16;;;;;;;66.28;32.75;;;;;;;7.16;63.05;100299.06;5039115;28;20383;-82
2020/12/08 04:25:41;;;;;;;62.05;32.70;;;;;;;6.03;66.51;100303.53;5049714;28;20072;-83
2020/12/08 04:28:10;;;;;;;64.97;32.83;;;;;;;6.33;65.37;100297.06;5057954;28;20039;-83
2020/12/08 04:30:39;;;;;;;69.80;35.63;;;;;;;6.51;65.33;100303.53;5075734;28;20544;-82
2020/12/08 04:33:06;;;;;;;66.60;32.90;;;;;;;6.63;64.60;100300.34;5076640;28;20111;-82
2020/12/08 04:35:31;;;;;;;64.25;33.00;;;;;;;5.92;67.39;100311.09;5076566;28;20036;-83
2020/12/08 04:37:57;;;;;;;68.22;33.60;;;;;;;5.94;66.98;100317.28;5058755;28;20037;-83
2020/12/08 04:40:23;;;;;;;66.28;34.13;;;;;;;6.06;66.42;100315.97;5058799;28;20028;-83
2020/12/08 04:42:49;;;;;;;;;;;;;;;5.97;66.29;100314.50;5077312;28;20033;-82
2020/12/08 04:45:16;;;;;;;64.53;31.58;;;;;;;6.03;66.10;100319.66;5076568;28;19912;-82
2020/12/08 04:47:45;;;;;;;77.22;34.63;;;;;;;6.16;66.22;100321.88;5076817;28;20043;-82
2020/12/08 04:50:15;;;;;;;78.60;36.38;;;;;;;6.29;65.84;100319.59;5058982;28;20040;-82
2020/12/08 04:52:42;;;;;;;81.20;37.10;;;;;;;6.08;66.85;100324.84;5076038;28;20032;-82
2020/12/08 04:55:07;;;;;;;79.95;37.22;;;;;;;6.63;64.91;100321.84;5076520;28;20067;-83
2020/12/08 04:57:33;;;;;;;75.28;36.08;;;;;;;6.28;65.89;100313.38;5041662;28;20448;-81
2020/12/08 05:00:06;;;;;;;74.03;36.17;;;;;;;6.62;64.02;100328.16;5058752;28;20486;-83
2020/12/08 05:02:31;;;;;;;82.40;37.83;;;;;;;6.16;65.60;100333.50;5058989;28;20040;-84
2020/12/08 05:04:57;;;;;;;80.00;37.25;;;;;;;6.44;65.42;100328.88;5058383;28;20389;-82
2020/12/08 05:07:28;;;;;;;84.28;38.63;;;;;;;5.99;67.20;100328.78;5058467;28;20036;-83
2020/12/08 05:09:54;;;;;;;89.57;38.33;;;;;;;6.06;65.07;100331.22;5058490;28;20496;-82
2020/12/08 05:12:24;;;;;;;85.55;37.17;;;;;;;6.15;65.88;100328.19;5059103;28;20068;-82
2020/12/08 05:14:50;;;;;;;80.57;37.55;;;;;;;5.84;66.85;100332.84;5057746;28;20037;-81
2020/12/08 05:17:27;;;;;;;83.90;37.75;;;;;;;5.64;66.60;100330.00;5057210;28;20051;-83
2020/12/08 05:20:09;;;;;;;95.38;40.13;;;;;;;5.22;68.83;100342.16;5075506;28;20033;-82
2020/12/08 05:22:38;;;;;;;92.70;37.92;;;;;;;5.40;67.16;100343.34;5075927;28;20032;-83
2020/12/08 05:25:11;;;;;;;96.10;41.20;;;;;;;5.23;68.38;100349.28;5075778;28;20037;-82
2020/12/08 05:27:37;;;;;;;93.93;40.03;;;;;;;5.47;66.93;100346.69;5057941;28;20067;-82
2020/12/08 05:30:07;;;;;;;87.82;39.30;;;;;;;6.00;64.66;100348.44;5057857;28;20160;-83
2020/12/08 05:32:38;;;;;;;86.40;37.97;;;;;;;5.54;66.08;100350.03;5057873;28;20071;-84
2020/12/08 05:35:10;;;;;;;88.20;37.47;;;;;;;6.18;64.73;100352.25;5058524;28;20037;-86
2020/12/08 05:37:37;;;;;;;91.47;39.10;;;;;;;5.40;66.53;100354.06;5057209;28;20481;-83
2020/12/08 05:40:13;;;;;;;94.97;40.05;;;;;;;5.63;65.77;100364.03;5075047;28;20390;-83
2020/12/08 05:42:46;;;;;;;107.07;39.72;;;;;;;4.92;68.53;100358.34;5058109;28;20028;-83
2020/12/08 05:45:16;;;;;;;94.57;39.40;;;;;;;5.90;65.00;100355.03;5076328;28;20040;-83
2020/12/08 05:47:54;;;;;;;93.70;38.15;;;;;;;5.20;67.43;100368.16;5057950;28;20075;-83
2020/12/08 05:50:21;;;;;;;89.50;37.63;;;;;;;5.47;66.70;100368.16;5058045;28;20303;-83
2020/12/08 05:52:55;;;;;;;98.40;39.13;;;;;;;5.23;66.71;100377.91;5075769;28;20043;-82
2020/12/08 05:55:23;;;;;;;109.07;41.97;;;;;;;5.18;67.27;100375.38;5054797;28;20040;-83
2020/12/08 05:57:52;;;;;;;92.88;38.72;;;;;;;5.83;64.90;100374.03;5073250;28;20064;-84
2020/12/08 06:00:26;;;;;;;95.80;39.25;;;;;;;5.80;64.88;100371.47;5054656;28;20127;-82
2020/12/08 06:02:58;;;;;;;96.55;37.97;;;;;;;5.78;64.53;100364.41;5055077;28;20037;-83
2020/12/08 06:05:25;;;;;;;99.70;39.20;;;;;;;5.84;64.64;100365.06;5055205;28;20048;-84
2020/12/08 06:07:51;;;;;;;78.75;34.97;;;;;;;6.10;63.25;100367.75;5054473;28;20037;-85
2020/12/08 06:10:16;;;;;;;81.78;33.90;;;;;;;6.15;62.79;100363.97;5073042;28;20519;-84
2020/12/08 06:12:42;;;;;;;83.57;36.15;;;;;;;5.36;64.87;100367.63;5054244;28;20033;-84
2020/12/08 06:15:15;;;;;;;93.38;37.38;;;;;;;5.32;65.46;100382.97;5054487;28;20025;-84
2020/12/08 06:17:47;;;;;;;91.95;38.10;;;;;;;5.33;65.31;100371.31;5072443;28;20496;-84
2020/12/08 06:20:13;;;;;;;85.47;35.75;;;;;;;5.78;63.92;100369.75;5054189;28;20028;-83
2020/12/08 06:22:38;;;;;;;82.07;35.08;;;;;;;5.79;63.78;100377.75;5053562;28;20033;-87
2020/12/08 06:25:04;;;;;;;82.90;34.83;;;;;;;5.56;64.74;100373.22;5057826;28;20132;-88
2020/12/08 06:27:29;;;;;;;87.35;36.45;;;;;;;5.59;64.38;100381.16;5074497;28;20489;-86
2020/12/08 06:29:55;;;;;;;;;;;;;;;5.49;63.75;100372.53;5073549;28;20059;-82
2020/12/08 06:32:29;;;;;;;93.85;35.42;;;;;;;5.46;64.51;100374.44;5070960;28;20288;-84
2020/12/08 06:35:06;;;;;;;85.82;35.75;;;;;;;4.85;66.25;100383.59;5072346;28;20056;-86
2020/12/08 06:37:31;;;;;;;91.60;37.97;;;;;;;4.92;66.24;100379.78;5073217;28;20033;-88
2020/12/08 06:40:11;;;;;;;97.57;36.58;;;;;;;4.86;66.74;100379.09;5071485;28;20074;-83
2020/12/08 06:42:37;;;;;;;103.47;37.50;;;;;;;4.32;68.33;100392.31;5070578;28;20035;-82
2020/12/08 06:45:06;;;;;;;87.28;37.33;;;;;;;5.02;65.88;100390.22;5072064;28;20041;-85
2020/12/08 06:47:32;;;;;;;98.82;38.22;;;;;;;4.26;67.89;100387.16;5070661;28;20131;-83
2020/12/08 06:49:57;;;;;;;90.05;35.70;;;;;;;4.75;66.27;100392.81;5072057;28;20120;-83
2020/12/08 06:52:22;;;;;;;;;;;;;;;4.57;67.02;100399.63;5074859;28;20036;-83
2020/12/08 06:54:57;;;;;;;88.60;34.70;;;;;;;5.18;64.73;100391.47;5073918;28;19912;-83
2020/12/08 06:57:22;;;;;;;78.40;33.38;;;;;;;5.38;63.86;100398.84;5073905;28;20344;-83
2020/12/08 06:59:47;;;;;;;67.95;31.48;;;;;;;5.62;63.02;100399.81;5075327;28;20037;-85
2020/12/08 07:02:13;;;;;;;71.43;31.60;;;;;;;5.59;62.73;100396.38;5074051;28;20469;-84
2020/12/08 07:04:38;;;;;;;;;;;;;;;5.06;64.25;100402.59;5075722;28;20040;-82
2020/12/08 07:07:03;;;;;;;68.20;30.25;;;;;;;5.39;62.80;100405.09;5073844;28;20015;-85
2020/12/08 07:09:32;;;;;;;70.00;33.20;;;;;;;5.85;61.40;100398.16;5073288;28;20041;-84
2020/12/08 07:12:04;;;;;;;74.53;33.45;;;;;;;5.34;63.48;100410.59;5073360;28;20040;-83
2020/12/08 07:14:30;;;;;;;76.65;31.52;;;;;;;5.67;62.04;100411.25;5073745;28;20032;-82
2020/12/08 07:16:56;;;;;;;75.95;31.85;;;;;;;5.51;63.26;100415.44;5073368;28;20025;-83
2020/12/08 07:19:21;;;;;;;71.13;31.83;;;;;;;5.34;63.31;100426.69;5073415;28;20036;-83
2020/12/08 07:21:56;;;;;;;;;;;;;;;4.53;66.76;100422.97;5075120;28;20037;-82
2020/12/08 07:24:25;;;;;;;81.15;31.67;;;;;;;5.05;65.26;100425.84;5073938;28;19920;-81
2020/12/08 07:26:57;;;;;;;72.50;30.48;;;;;;;5.52;62.96;100424.34;5036670;28;20036;-82
2020/12/08 07:29:24;;;;;;;70.60;29.90;;;;;;;4.69;65.22;100423.34;5054663;28;20060;-82
2020/12/08 07:31:49;;;;;;;72.65;31.67;;;;;;;5.13;64.63;100428.25;5036576;28;20040;-83
2020/12/08 07:34:15;;;;;;;74.13;31.60;;;;;;;5.17;64.68;100424.56;5054449;28;20494;-84
2020/12/08 07:36:41;;;;;;;67.82;29.45;;;;;;;5.09;64.52;100432.00;5054583;28;20077;-82
2020/12/08 07:39:18;;;;;;;110.43;49.60;;;;;;;4.72;66.45;100431.31;5036927;28;20037;-84
2020/12/08 07:41:44;;;;;;;93.05;38.33;;;;;;;4.58;67.38;100423.69;5032272;28;20033;-83
2020/12/08 07:44:16;;;;;;;243.07;77.43;;;;;;;4.68;66.66;100434.13;5036626;28;20047;-84
2020/12/08 07:46:49;;;;;;;258.40;79.07;;;;;;;5.29;64.46;100442.94;5054383;28;20044;-84
2020/12/08 07:49:14;;;;;;;204.93;61.80;;;;;;;4.85;65.96;100431.81;5039301;28;20121;-84
2020/12/08 07:51:40;;;;;;;177.77;59.05;;;;;;;5.45;63.91;100434.38;5063072;28;20116;-85
2020/12/08 07:54:07;;;;;;;172.30;57.50;;;;;;;5.56;63.44;100437.59;5036128;28;20036;-82
2020/12/08 07:56:35;;;;;;;148.75;56.45;;;;;;;5.87;63.00;100444.59;5053864;28;20509;-84
2020/12/08 07:59:01;;;;;;;91.95;38.60;;;;;;;5.93;62.06;100447.06;5036051;28;20069;-83
2020/12/08 08:01:27;;;;;;;67.43;31.27;;;;;;;5.68;62.70;100455.97;5035338;28;20486;-83
2020/12/08 08:03:53;;;;;;;66.18;33.78;;;;;;;5.70;62.48;100458.59;5035640;28;20084;-85
2020/12/08 08:06:22;;;;;;;59.70;29.92;;;;;;;5.24;65.16;100460.09;5036047;28;20052;-84
2020/12/08 08:08:49;;;;;;;58.70;27.25;;;;;;;5.09;65.54;100461.50;5053916;28;20041;-83
2020/12/08 08:11:16;;;;;;;58.83;26.48;;;;;;;5.83;62.79;100459.06;5035928;28;20044;-82
2020/12/08 08:13:41;;;;;;;55.97;27.98;;;;;;;5.73;63.52;100457.63;5054324;28;20037;-83
2020/12/08 08:16:14;;;;;;;63.58;27.65;;;;;;;5.93;62.73;100460.50;5045934;28;20513;-82
2020/12/08 08:18:40;;;;;;;54.85;25.00;;;;;;;5.65;63.39;100472.19;5051920;28;20056;-86
2020/12/08 08:21:07;;;;;;;52.83;25.33;;;;;;;5.36;65.48;100474.94;5035026;28;20483;-82
2020/12/08 08:23:33;;;;;;;54.15;25.67;;;;;;;5.40;64.84;100474.78;5051777;28;20041;-83
2020/12/08 08:25:58;;;;;;;;;;;;;;;6.18;62.79;100473.09;5066894;28;20056;-84
2020/12/08 08:28:25;;;;;;;50.80;25.75;;;;;;;6.30;62.25;100471.81;5054979;28;20289;-85
2020/12/08 08:30:51;;;;;;;52.00;24.52;;;;;;;6.57;61.64;100477.97;5072062;28;20028;-85
2020/12/08 08:33:17;;;;;;;42.28;22.63;;;;;;;6.47;61.53;100481.94;5056839;28;20029;-87
2020/12/08 08:35:47;;;;;;;46.20;23.02;;;;;;;6.45;61.89;100478.44;5056474;28;20132;-87
2020/12/08 08:38:12;;;;;;;47.05;24.50;;;;;;;5.96;63.55;100472.94;5056321;28;20046;-87
2020/12/08 08:40:37;;;;;;;49.47;23.77;;;;;;;6.39;61.41;100472.34;5073433;28;20115;-88
2020/12/08 08:43:03;;;;;;;43.35;23.05;;;;;;;6.52;61.80;100475.47;5059295;28;20058;-84
2020/12/08 08:45:28;;;;;;;48.50;24.60;;;;;;;5.99;63.19;100472.88;5080156;28;20079;-83
2020/12/08 08:47:54;;;;;;;40.88;22.15;;;;;;;6.03;63.75;100478.06;5054576;28;20060;-82
2020/12/08 08:50:19;;;;;;;47.60;24.27;;;;;;;5.81;64.75;100475.25;5080665;28;20112;-83
2020/12/08 08:52:45;;;;;;;45.97;23.33;;;;;;;5.64;65.43;100480.28;5076348;28;20283;-82
2020/12/08 08:55:11;;;;;;;41.25;22.52;;;;;;;5.70;65.09;100481.88;5070424;28;20029;-82
2020/12/08 08:57:37;;;;;;;44.15;23.35;;;;;;;5.65;65.28;100474.88;5069900;28;20071;-82
2020/12/08 09:00:08;;;;;;;51.35;28.60;;;;;;;5.78;65.65;100479.81;5070260;28;20054;-82
2020/12/08 09:02:34;;;;;;;51.50;26.35;;;;;;;5.88;65.42;100481.25;5071693;28;20116;-83
2020/12/08 09:04:59;;;;;;;44.60;24.90;;;;;;;6.02;64.80;100480.81;5053969;28;20040;-82
2020/12/08 09:07:26;;;;;;;44.90;23.85;;;;;;;6.02;64.64;100484.41;5053933;28;20041;-84
2020/12/08 09:09:52;;;;;;;48.00;24.65;;;;;;;5.98;64.88;100485.44;5054277;28;20029;-83
2020/12/08 09:12:18;;;;;;;43.40;22.95;;;;;;;5.71;65.47;100492.56;5054613;28;20041;-83
2020/12/08 09:14:44;;;;;;;39.83;23.05;;;;;;;5.90;65.62;100492.81;5071502;28;20474;-85
2020/12/08 09:17:09;;;;;;;;;;;;;;;6.13;64.71;100499.22;5071580;28;20037;-84
2020/12/08 09:19:35;;;;;;;43.58;23.40;;;;;;;5.90;65.35;100497.31;5054208;28;20054;-85
2020/12/08 09:22:00;;;;;;;46.08;25.63;;;;;;;5.21;67.39;100495.06;5071006;28;20094;-83
2020/12/08 09:24:25;;;;;;;;;;;;;;;5.63;66.72;100498.19;5072456;28;20028;-82
2020/12/08 09:26:50;;;;;;;45.97;23.67;;;;;;;5.84;65.71;100504.66;5064697;28;19924;-83
2020/12/08 09:29:16;;;;;;;47.90;25.60;;;;;;;5.85;66.86;100494.78;5037295;28;20100;-82
2020/12/08 09:31:43;;;;;;;;;;;;;;;6.08;65.50;100496.72;5054255;28;20033;-84
2020/12/08 09:34:08;;;;;;;45.28;22.73;;;;;;;5.90;65.46;100495.50;5052986;28;19942;-82
2020/12/08 09:36:35;;;;;;;44.40;22.83;;;;;;;6.84;63.51;100496.66;5052393;28;20049;-85
2020/12/08 09:39:00;;;;;;;39.78;23.17;;;;;;;5.91;65.16;100501.75;5050469;28;20052;-85
2020/12/08 09:41:26;;;;;;;44.92;24.10;;;;;;;6.02;66.24;100503.19;5051564;28;20036;-81
2020/12/08 09:43:51;;;;;;;41.22;22.00;;;;;;;6.21;65.64;100497.19;5066527;28;20448;-84
2020/12/08 09:46:16;;;;;;;40.35;22.80;;;;;;;6.38;64.60;100497.44;5054189;28;20127;-82
2020/12/08 09:48:42;;;;;;;40.58;22.27;;;;;;;6.54;64.12;100500.47;5071662;28;20047;-84
2020/12/08 09:51:07;;;;;;;41.42;22.05;;;;;;;6.04;65.11;100505.81;5055404;28;20056;-82
2020/12/08 09:53:32;;;;;;;42.83;23.55;;;;;;;6.85;63.89;100493.94;5088509;28;20503;-85
2020/12/08 09:55:58;;;;;;;38.95;22.00;;;;;;;6.95;63.21;100499.84;5074055;28;20043;-83
2020/12/08 09:58:23;;;;;;;39.90;22.30;;;;;;;7.36;62.08;100496.47;5073638;28;20024;-83
2020/12/08 10:00:49;;;;;;;39.92;22.52;;;;;;;6.83;63.66;100494.94;5075906;28;20493;-84
2020/12/08 10:03:14;;;;;;;49.28;23.63;;;;;;;7.37;62.74;100496.41;5052310;28;20123;-84
2020/12/08 10:05:39;;;;;;;;;;;;;;;7.93;60.63;100499.53;5053272;28;20028;-88
2020/12/08 10:08:04;;;;;;;32.83;20.92;;;;;;;8.15;60.35;100503.06;5050577;28;20003;-82
2020/12/08 10:10:30;;;;;;;33.17;19.48;;;;;;;8.43;59.88;100509.94;5068202;28;20040;-82
2020/12/08 10:12:55;;;;;;;29.52;19.33;;;;;;;8.34;59.62;100507.66;5075894;28;20596;-82
2020/12/08 10:15:20;;;;;;;33.35;18.70;;;;;;;8.24;60.09;100503.59;5075973;28;20054;-82
2020/12/08 10:17:46;;;;;;;30.23;20.08;;;;;;;8.58;60.12;100503.03;5057568;28;20127;-83
2020/12/08 10:20:12;;;;;;;;;;;;;;;8.75;58.32;100509.47;5062882;28;20115;-82
2020/12/08 10:22:38;;;;;;;32.45;21.15;;;;;;;8.69;59.44;100498.00;5067065;28;19951;-82
2020/12/08 10:25:04;;;;;;;29.40;18.88;;;;;;;8.93;57.64;100503.22;5095234;28;20048;-84
2020/12/08 10:27:29;;;;;;;31.75;19.08;;;;;;;9.07;57.14;100504.41;5057767;28;20093;-83
2020/12/08 10:29:55;;;;;;;34.45;19.70;;;;;;;9.42;58.08;100497.34;5057295;28;20033;-83
2020/12/08 10:32:20;;;;;;;;;;;;;;;9.26;58.13;100493.63;5057119;28;20505;-83
2020/12/08 10:34:45;;;;;;;39.70;23.70;;;;;;;8.86;58.12;100502.66;5057217;28;20073;-83
2020/12/08 10:37:11;;;;;;;40.47;26.02;;;;;;;9.13;57.87;100510.38;5057770;28;20672;-83
2020/12/08 10:39:36;;;;;;;;;;;;;;;7.67;61.86;100514.97;5056523;28;20033;-83
2020/12/08 10:42:01;;;;;;;33.15;19.52;;;;;;;9.15;59.56;100519.31;5057701;28;19916;-84
2020/12/08 10:44:27;;;;;;;30.45;18.52;;;;;;;9.56;56.93;100512.88;5058456;28;20155;-83
2020/12/08 10:46:52;;;;;;;28.42;18.08;;;;;;;8.85;58.78;100508.97;5060076;28;20095;-83
2020/12/08 10:49:19;;;;;;;25.58;17.70;;;;;;;8.06;61.13;100511.56;5042374;28;20033;-84
2020/12/08 10:51:45;;;;;;;34.10;19.75;;;;;;;8.17;62.52;100511.09;5065444;23;20053;-84
2020/12/08 10:54:10;;;;;;;28.77;19.00;;;;;;;8.14;61.14;100513.91;5080513;28;20040;-83
2020/12/08 10:56:35;;;;;;;33.30;19.10;;;;;;;7.78;62.02;100506.44;5078149;28;20489;-82
2020/12/08 10:59:01;;;;;;;32.35;18.60;;;;;;;9.26;58.45;100512.53;5051221;28;20037;-83
2020/12/08 11:01:26;;;;;;;28.90;19.17;;;;;;;9.68;57.51;100497.91;5040308;28;20051;-83
2020/12/08 11:03:53;;;;;;;36.55;18.88;;;;;;;9.31;58.40;100499.66;5058196;28;20044;-83
2020/12/08 11:06:24;;;;;;;34.70;18.13;;;;;;;9.58;57.72;100503.72;5040460;28;20037;-81
2020/12/08 11:08:51;;;;;;;34.05;20.35;;;;;;;9.29;58.40;100501.59;5058933;28;20040;-81
2020/12/08 11:11:22;;;;;;;32.58;20.10;;;;;;;8.80;60.08;100499.34;5058200;28;20029;-80
2020/12/08 11:13:47;;;;;;;35.17;21.38;;;;;;;8.76;59.63;100506.72;5057872;28;20529;-82
2020/12/08 11:16:13;;;;;;;35.88;21.42;;;;;;;8.70;60.20;100501.59;5038401;28;20021;-82
2020/12/08 11:18:38;;;;;;;33.25;20.38;;;;;;;9.00;59.69;100503.84;5039417;28;20044;-82
2020/12/08 11:21:04;;;;;;;33.38;21.85;;;;;;;9.67;57.50;100498.84;5040167;28;20098;-81
2020/12/08 11:23:29;;;;;;;33.38;21.25;;;;;;;9.71;57.72;100503.16;5058250;28;20108;-81
2020/12/08 11:25:54;;;;;;;34.90;21.60;;;;;;;9.89;55.79;100499.50;5057725;28;20180;-82
2020/12/08 11:28:20;;;;;;;37.25;23.02;;;;;;;9.37;57.70;100499.38;5042685;28;20036;-82
2020/12/08 11:30:45;;;;;;;40.97;25.35;;;;;;;9.19;58.52;100510.13;5059556;28;20040;-82